sensor_id;sensor_type;location;lat;lon;timestamp;temperature;humidity
8633;DHT22;4354;49.832;10.746;2022-08-01T00:00:05;18.10;99.90
8633;DHT22;4354;49.832;10.746;2022-08-01T00:02:36;18.00;99.90
8633;DHT22;4354;49.832;10.746;2022-08-01T00:05:05;18.10;99.90
8633;DHT22;4354;49.832;10.746;2022-08-01T00:07:33;18.00;99.90
8633;DHT22;4354;49.832;10.746;2022-08-01T00:10:02;18.10;99.90
8633;DHT22;4354;49.832;10.746;2022-08-01T00:12:29;18.10;99.90
8633;DHT22;4354;49.832;10.746;2022-08-01T00:14:55;18.10;99.90
8633;DHT22;4354;49.832;10.746;2022-08-01T00:17:22;18.10;99.90
8633;DHT22;4354;49.832;10.746;2022-08-01T00:19:49;18.10;99.90
8633;DHT22;4354;49.832;10.746;2022-08-01T00:22:16;18.00;99.90
8633;DHT22;4354;49.832;10.746;2022-08-01T00:24:43;18.00;99.90
8633;DHT22;4354;49.832;10.746;2022-08-01T00:27:09;18.10;99.90
8633;DHT22;4354;49.832;10.746;2022-08-01T00:29:36;18.00;99.90
8633;DHT22;4354;49.832;10.746;2022-08-01T00:32:23;17.90;99.90
8633;DHT22;4354;49.832;10.746;2022-08-01T00:34:50;18.00;99.90
8633;DHT22;4354;49.832;10.746;2022-08-01T00:37:17;18.00;99.90
8633;DHT22;4354;49.832;10.746;2022-08-01T00:39:43;17.90;99.90
8633;DHT22;4354;49.832;10.746;2022-08-01T00:42:11;17.90;99.90
8633;DHT22;4354;49.832;10.746;2022-08-01T00:44:39;17.80;99.90
8633;DHT22;4354;49.832;10.746;2022-08-01T00:47:07;17.80;99.90
8633;DHT22;4354;49.832;10.746;2022-08-01T00:49:34;17.70;99.90
8633;DHT22;4354;49.832;10.746;2022-08-01T00:52:02;17.70;99.90
8633;DHT22;4354;49.832;10.746;2022-08-01T00:54:32;17.60;99.90
8633;DHT22;4354;49.832;10.746;2022-08-01T00:56:59;17.60;99.90
8633;DHT22;4354;49.832;10.746;2022-08-01T00:59:26;17.50;99.90
8633;DHT22;4354;49.832;10.746;2022-08-01T01:01:53;17.50;99.90
8633;DHT22;4354;49.832;10.746;2022-08-01T01:04:27;17.50;99.90
8633;DHT22;4354;49.832;10.746;2022-08-01T01:10:05;17.50;99.90
8633;DHT22;4354;49.832;10.746;2022-08-01T01:13:07;17.40;99.90
8633;DHT22;4354;49.832;10.746;2022-08-01T01:15:43;17.40;99.90
8633;DHT22;4354;49.832;10.746;2022-08-01T01:18:22;17.40;99.90
8633;DHT22;4354;49.832;10.746;2022-08-01T01:21:00;17.40;99.90
8633;DHT22;4354;49.832;10.746;2022-08-01T01:24:04;17.50;99.90
8633;DHT22;4354;49.832;10.746;2022-08-01T01:26:53;17.50;99.90
8633;DHT22;4354;49.832;10.746;2022-08-01T01:29:42;17.50;99.90
8633;DHT22;4354;49.832;10.746;2022-08-01T01:32:35;17.50;99.90
8633;DHT22;4354;49.832;10.746;2022-08-01T01:35:08;17.60;99.90
8633;DHT22;4354;49.832;10.746;2022-08-01T01:37:38;17.60;99.90
8633;DHT22;4354;49.832;10.746;2022-08-01T01:40:07;17.70;99.90
8633;DHT22;4354;49.832;10.746;2022-08-01T01:42:36;17.60;99.90
8633;DHT22;4354;49.832;10.746;2022-08-01T01:45:04;17.60;99.90
8633;DHT22;4354;49.832;10.746;2022-08-01T01:47:32;17.60;99.90
8633;DHT22;4354;49.832;10.746;2022-08-01T01:50:00;17.60;99.90
8633;DHT22;4354;49.832;10.746;2022-08-01T01:52:29;17.70;99.90
8633;DHT22;4354;49.832;10.746;2022-08-01T01:54:58;17.70;99.90
8633;DHT22;4354;49.832;10.746;2022-08-01T01:57:27;17.70;99.90
8633;DHT22;4354;49.832;10.746;2022-08-01T01:59:56;17.70;99.90
8633;DHT22;4354;49.832;10.746;2022-08-01T02:02:24;17.70;99.90
8633;DHT22;4354;49.832;10.746;2022-08-01T02:04:52;17.70;99.90
8633;DHT22;4354;49.832;10.746;2022-08-01T02:07:22;17.70;99.90
8633;DHT22;4354;49.832;10.746;2022-08-01T02:09:51;17.70;99.90
8633;DHT22;4354;49.832;10.746;2022-08-01T02:12:19;17.70;99.90
8633;DHT22;4354;49.832;10.746;2022-08-01T02:14:49;17.50;99.90
8633;DHT22;4354;49.832;10.746;2022-08-01T02:17:17;17.50;99.90
8633;DHT22;4354;49.832;10.746;2022-08-01T02:19:45;17.40;99.90
8633;DHT22;4354;49.832;10.746;2022-08-01T02:22:16;17.40;99.90
8633;DHT22;4354;49.832;10.746;2022-08-01T02:25:00;17.30;99.90
8633;DHT22;4354;49.832;10.746;2022-08-01T02:27:46;17.20;99.90
8633;DHT22;4354;49.832;10.746;2022-08-01T02:30:15;17.20;99.90
8633;DHT22;4354;49.832;10.746;2022-08-01T02:32:46;17.10;99.90
8633;DHT22;4354;49.832;10.746;2022-08-01T02:35:20;17.10;99.90
8633;DHT22;4354;49.832;10.746;2022-08-01T02:37:48;17.00;99.90
8633;DHT22;4354;49.832;10.746;2022-08-01T02:40:17;17.10;99.90
8633;DHT22;4354;49.832;10.746;2022-08-01T02:42:49;16.90;99.90
8633;DHT22;4354;49.832;10.746;2022-08-01T02:45:22;16.90;99.90
8633;DHT22;4354;49.832;10.746;2022-08-01T02:47:52;16.80;99.90
8633;DHT22;4354;49.832;10.746;2022-08-01T02:50:20;16.80;99.90
8633;DHT22;4354;49.832;10.746;2022-08-01T02:52:50;16.70;99.90
8633;DHT22;4354;49.832;10.746;2022-08-01T02:55:18;16.70;99.90
8633;DHT22;4354;49.832;10.746;2022-08-01T02:57:46;16.70;99.90
8633;DHT22;4354;49.832;10.746;2022-08-01T03:00:23;16.60;99.90
8633;DHT22;4354;49.832;10.746;2022-08-01T03:02:52;16.70;99.90
8633;DHT22;4354;49.832;10.746;2022-08-01T03:05:23;16.60;99.90
8633;DHT22;4354;49.832;10.746;2022-08-01T03:07:52;16.60;99.90
8633;DHT22;4354;49.832;10.746;2022-08-01T03:10:20;16.60;99.90
8633;DHT22;4354;49.832;10.746;2022-08-01T03:12:49;16.60;99.90
8633;DHT22;4354;49.832;10.746;2022-08-01T03:15:17;16.60;99.90
8633;DHT22;4354;49.832;10.746;2022-08-01T03:17:46;16.60;99.90
8633;DHT22;4354;49.832;10.746;2022-08-01T03:20:15;16.60;99.90
8633;DHT22;4354;49.832;10.746;2022-08-01T03:22:43;16.60;99.90
8633;DHT22;4354;49.832;10.746;2022-08-01T03:25:13;16.60;99.90
8633;DHT22;4354;49.832;10.746;2022-08-01T03:27:42;16.60;99.90
8633;DHT22;4354;49.832;10.746;2022-08-01T03:30:10;16.40;99.90
8633;DHT22;4354;49.832;10.746;2022-08-01T03:32:37;16.50;99.90
8633;DHT22;4354;49.832;10.746;2022-08-01T03:35:05;16.50;99.90
8633;DHT22;4354;49.832;10.746;2022-08-01T03:37:52;16.50;99.90
8633;DHT22;4354;49.832;10.746;2022-08-01T03:41:02;16.50;99.90
8633;DHT22;4354;49.832;10.746;2022-08-01T03:43:42;16.40;99.90
8633;DHT22;4354;49.832;10.746;2022-08-01T03:46:15;16.50;99.90
8633;DHT22;4354;49.832;10.746;2022-08-01T03:48:47;16.50;99.90
8633;DHT22;4354;49.832;10.746;2022-08-01T03:51:15;16.50;99.90
8633;DHT22;4354;49.832;10.746;2022-08-01T03:53:45;16.60;99.90
8633;DHT22;4354;49.832;10.746;2022-08-01T03:56:17;16.70;99.90
8633;DHT22;4354;49.832;10.746;2022-08-01T03:58:46;16.70;99.90
8633;DHT22;4354;49.832;10.746;2022-08-01T04:01:16;16.90;99.90
8633;DHT22;4354;49.832;10.746;2022-08-01T04:03:44;16.90;99.90
8633;DHT22;4354;49.832;10.746;2022-08-01T04:06:11;17.00;99.90
8633;DHT22;4354;49.832;10.746;2022-08-01T04:08:40;17.00;99.90
8633;DHT22;4354;49.832;10.746;2022-08-01T04:11:09;17.20;99.90
8633;DHT22;4354;49.832;10.746;2022-08-01T04:13:36;17.30;99.90
8633;DHT22;4354;49.832;10.746;2022-08-01T04:16:04;17.40;99.90
8633;DHT22;4354;49.832;10.746;2022-08-01T04:18:31;17.40;99.90
8633;DHT22;4354;49.832;10.746;2022-08-01T04:20:58;17.50;99.90
8633;DHT22;4354;49.832;10.746;2022-08-01T04:23:26;17.50;99.90
8633;DHT22;4354;49.832;10.746;2022-08-01T04:25:55;17.60;99.90
8633;DHT22;4354;49.832;10.746;2022-08-01T04:28:23;17.60;99.90
8633;DHT22;4354;49.832;10.746;2022-08-01T04:30:54;17.70;99.90
8633;DHT22;4354;49.832;10.746;2022-08-01T04:33:28;17.80;99.90
8633;DHT22;4354;49.832;10.746;2022-08-01T04:35:56;17.80;99.90
8633;DHT22;4354;49.832;10.746;2022-08-01T04:38:31;18.00;99.90
8633;DHT22;4354;49.832;10.746;2022-08-01T04:40:58;18.10;99.90
8633;DHT22;4354;49.832;10.746;2022-08-01T04:43:35;18.10;99.90
8633;DHT22;4354;49.832;10.746;2022-08-01T04:46:03;18.30;99.90
8633;DHT22;4354;49.832;10.746;2022-08-01T04:48:31;18.20;99.90
8633;DHT22;4354;49.832;10.746;2022-08-01T04:50:59;18.30;99.90
8633;DHT22;4354;49.832;10.746;2022-08-01T04:53:26;18.40;99.90
8633;DHT22;4354;49.832;10.746;2022-08-01T04:55:53;18.40;99.90
8633;DHT22;4354;49.832;10.746;2022-08-01T04:58:20;18.50;99.90
8633;DHT22;4354;49.832;10.746;2022-08-01T05:00:47;18.50;99.90
8633;DHT22;4354;49.832;10.746;2022-08-01T05:03:13;18.60;99.90
8633;DHT22;4354;49.832;10.746;2022-08-01T05:05:40;18.60;99.90
8633;DHT22;4354;49.832;10.746;2022-08-01T05:08:07;18.70;99.90
8633;DHT22;4354;49.832;10.746;2022-08-01T05:10:34;18.80;99.90
8633;DHT22;4354;49.832;10.746;2022-08-01T05:13:01;18.90;99.90
8633;DHT22;4354;49.832;10.746;2022-08-01T05:15:28;19.00;99.90
8633;DHT22;4354;49.832;10.746;2022-08-01T05:17:54;19.00;99.90
8633;DHT22;4354;49.832;10.746;2022-08-01T05:20:22;19.10;99.90
8633;DHT22;4354;49.832;10.746;2022-08-01T05:22:49;19.20;99.90
8633;DHT22;4354;49.832;10.746;2022-08-01T05:25:16;19.20;99.90
8633;DHT22;4354;49.832;10.746;2022-08-01T05:27:49;19.30;99.90
8633;DHT22;4354;49.832;10.746;2022-08-01T05:30:16;19.40;99.90
8633;DHT22;4354;49.832;10.746;2022-08-01T05:32:43;19.50;99.90
8633;DHT22;4354;49.832;10.746;2022-08-01T05:35:10;19.50;99.90
8633;DHT22;4354;49.832;10.746;2022-08-01T05:37:37;19.60;99.90
8633;DHT22;4354;49.832;10.746;2022-08-01T05:40:04;19.80;99.90
8633;DHT22;4354;49.832;10.746;2022-08-01T05:42:31;20.00;99.90
8633;DHT22;4354;49.832;10.746;2022-08-01T05:44:58;20.20;99.90
8633;DHT22;4354;49.832;10.746;2022-08-01T05:47:25;20.30;99.90
8633;DHT22;4354;49.832;10.746;2022-08-01T05:49:52;20.50;99.90
8633;DHT22;4354;49.832;10.746;2022-08-01T05:52:18;20.40;99.90
8633;DHT22;4354;49.832;10.746;2022-08-01T05:54:45;20.60;99.90
8633;DHT22;4354;49.832;10.746;2022-08-01T05:57:12;20.60;99.90
8633;DHT22;4354;49.832;10.746;2022-08-01T05:59:40;20.70;99.90
8633;DHT22;4354;49.832;10.746;2022-08-01T06:02:07;20.80;99.90
8633;DHT22;4354;49.832;10.746;2022-08-01T06:04:37;20.80;99.90
8633;DHT22;4354;49.832;10.746;2022-08-01T06:07:04;20.80;99.90
8633;DHT22;4354;49.832;10.746;2022-08-01T06:09:31;20.80;99.90
8633;DHT22;4354;49.832;10.746;2022-08-01T06:11:58;20.90;99.90
8633;DHT22;4354;49.832;10.746;2022-08-01T06:14:24;20.80;99.90
8633;DHT22;4354;49.832;10.746;2022-08-01T06:16:51;20.80;99.90
8633;DHT22;4354;49.832;10.746;2022-08-01T06:19:18;20.90;99.90
8633;DHT22;4354;49.832;10.746;2022-08-01T06:21:44;20.80;99.90
8633;DHT22;4354;49.832;10.746;2022-08-01T06:24:11;20.80;99.90
8633;DHT22;4354;49.832;10.746;2022-08-01T06:26:38;20.90;99.90
8633;DHT22;4354;49.832;10.746;2022-08-01T06:29:05;21.00;99.90
8633;DHT22;4354;49.832;10.746;2022-08-01T06:31:31;21.00;99.90
8633;DHT22;4354;49.832;10.746;2022-08-01T06:33:59;21.10;99.90
8633;DHT22;4354;49.832;10.746;2022-08-01T06:36:26;21.30;99.90
8633;DHT22;4354;49.832;10.746;2022-08-01T06:38:53;21.60;99.90
8633;DHT22;4354;49.832;10.746;2022-08-01T06:41:20;21.90;99.90
8633;DHT22;4354;49.832;10.746;2022-08-01T06:43:46;22.00;99.90
8633;DHT22;4354;49.832;10.746;2022-08-01T06:46:13;22.00;99.90
8633;DHT22;4354;49.832;10.746;2022-08-01T06:48:40;22.20;99.90
8633;DHT22;4354;49.832;10.746;2022-08-01T06:51:07;22.10;99.90
8633;DHT22;4354;49.832;10.746;2022-08-01T06:53:40;22.10;99.90
8633;DHT22;4354;49.832;10.746;2022-08-01T06:56:07;22.20;99.90
8633;DHT22;4354;49.832;10.746;2022-08-01T06:58:35;22.50;99.90
8633;DHT22;4354;49.832;10.746;2022-08-01T07:01:04;22.60;99.90
8633;DHT22;4354;49.832;10.746;2022-08-01T07:03:34;22.70;99.90
8633;DHT22;4354;49.832;10.746;2022-08-01T07:06:24;22.80;99.90
8633;DHT22;4354;49.832;10.746;2022-08-01T07:08:55;23.00;99.90
8633;DHT22;4354;49.832;10.746;2022-08-01T07:11:23;23.10;99.90
8633;DHT22;4354;49.832;10.746;2022-08-01T07:13:51;23.20;99.90
8633;DHT22;4354;49.832;10.746;2022-08-01T07:16:18;23.40;99.90
8633;DHT22;4354;49.832;10.746;2022-08-01T07:18:44;23.50;99.90
8633;DHT22;4354;49.832;10.746;2022-08-01T07:21:11;23.70;99.90
8633;DHT22;4354;49.832;10.746;2022-08-01T07:23:58;24.00;99.90
8633;DHT22;4354;49.832;10.746;2022-08-01T07:26:25;24.20;99.90
8633;DHT22;4354;49.832;10.746;2022-08-01T07:28:53;24.50;99.90
8633;DHT22;4354;49.832;10.746;2022-08-01T07:31:20;24.60;99.90
8633;DHT22;4354;49.832;10.746;2022-08-01T07:33:47;24.40;99.90
8633;DHT22;4354;49.832;10.746;2022-08-01T07:36:15;24.50;99.90
8633;DHT22;4354;49.832;10.746;2022-08-01T07:38:43;25.10;99.90
8633;DHT22;4354;49.832;10.746;2022-08-01T07:41:10;25.30;99.90
8633;DHT22;4354;49.832;10.746;2022-08-01T07:43:37;25.60;99.90
8633;DHT22;4354;49.832;10.746;2022-08-01T07:46:04;26.20;99.90
8633;DHT22;4354;49.832;10.746;2022-08-01T07:48:31;28.10;99.90
8633;DHT22;4354;49.832;10.746;2022-08-01T07:50:58;29.70;99.90
8633;DHT22;4354;49.832;10.746;2022-08-01T07:53:25;31.00;99.90
8633;DHT22;4354;49.832;10.746;2022-08-01T07:55:52;31.50;96.80
8633;DHT22;4354;49.832;10.746;2022-08-01T07:58:19;31.50;95.30
8633;DHT22;4354;49.832;10.746;2022-08-01T08:00:46;30.60;95.60
8633;DHT22;4354;49.832;10.746;2022-08-01T08:03:12;29.80;97.30
8633;DHT22;4354;49.832;10.746;2022-08-01T08:05:39;28.70;97.90
8633;DHT22;4354;49.832;10.746;2022-08-01T08:08:25;27.70;99.40
8633;DHT22;4354;49.832;10.746;2022-08-01T08:10:52;27.30;99.90
8633;DHT22;4354;49.832;10.746;2022-08-01T08:13:19;26.80;99.90
8633;DHT22;4354;49.832;10.746;2022-08-01T08:15:46;26.20;99.90
8633;DHT22;4354;49.832;10.746;2022-08-01T08:18:14;25.90;99.90
8633;DHT22;4354;49.832;10.746;2022-08-01T08:20:41;26.00;99.90
8633;DHT22;4354;49.832;10.746;2022-08-01T08:23:07;25.90;99.90
8633;DHT22;4354;49.832;10.746;2022-08-01T08:26:09;25.80;99.90
8633;DHT22;4354;49.832;10.746;2022-08-01T08:28:36;26.00;99.90
8633;DHT22;4354;49.832;10.746;2022-08-01T08:31:06;26.50;99.90
8633;DHT22;4354;49.832;10.746;2022-08-01T08:33:53;27.40;99.90
8633;DHT22;4354;49.832;10.746;2022-08-01T08:36:20;28.70;99.90
8633;DHT22;4354;49.832;10.746;2022-08-01T08:38:56;28.40;99.90
8633;DHT22;4354;49.832;10.746;2022-08-01T08:41:23;28.30;99.90
8633;DHT22;4354;49.832;10.746;2022-08-01T08:43:50;28.10;99.90
8633;DHT22;4354;49.832;10.746;2022-08-01T08:46:16;28.20;99.90
8633;DHT22;4354;49.832;10.746;2022-08-01T08:48:55;27.80;99.90
8633;DHT22;4354;49.832;10.746;2022-08-01T08:51:23;27.20;99.90
8633;DHT22;4354;49.832;10.746;2022-08-01T08:53:55;26.90;99.90
8633;DHT22;4354;49.832;10.746;2022-08-01T08:56:23;26.40;99.90
8633;DHT22;4354;49.832;10.746;2022-08-01T08:58:53;26.20;99.90
8633;DHT22;4354;49.832;10.746;2022-08-01T09:01:20;26.20;99.90
8633;DHT22;4354;49.832;10.746;2022-08-01T09:03:48;26.30;99.90
8633;DHT22;4354;49.832;10.746;2022-08-01T09:06:15;26.30;99.90
8633;DHT22;4354;49.832;10.746;2022-08-01T09:08:42;27.30;99.90
8633;DHT22;4354;49.832;10.746;2022-08-01T09:11:09;28.90;99.90
8633;DHT22;4354;49.832;10.746;2022-08-01T09:13:36;31.10;97.60
8633;DHT22;4354;49.832;10.746;2022-08-01T09:16:15;32.60;94.50
8633;DHT22;4354;49.832;10.746;2022-08-01T09:18:43;34.00;90.20
8633;DHT22;4354;49.832;10.746;2022-08-01T09:21:20;33.50;84.80
8633;DHT22;4354;49.832;10.746;2022-08-01T09:23:52;31.90;85.60
8633;DHT22;4354;49.832;10.746;2022-08-01T09:26:32;31.30;86.30
8633;DHT22;4354;49.832;10.746;2022-08-01T09:29:04;30.10;89.00
8633;DHT22;4354;49.832;10.746;2022-08-01T09:31:40;29.40;90.30
8633;DHT22;4354;49.832;10.746;2022-08-01T09:34:15;28.80;91.70
8633;DHT22;4354;49.832;10.746;2022-08-01T09:36:59;28.50;92.20
8633;DHT22;4354;49.832;10.746;2022-08-01T09:39:31;27.70;93.40
8633;DHT22;4354;49.832;10.746;2022-08-01T09:42:02;27.70;94.40
8633;DHT22;4354;49.832;10.746;2022-08-01T09:44:45;27.30;95.80
8633;DHT22;4354;49.832;10.746;2022-08-01T09:47:21;27.60;95.40
8633;DHT22;4354;49.832;10.746;2022-08-01T09:49:55;28.30;95.30
8633;DHT22;4354;49.832;10.746;2022-08-01T09:52:26;28.50;94.50
8633;DHT22;4354;49.832;10.746;2022-08-01T09:55:02;28.40;93.50
8633;DHT22;4354;49.832;10.746;2022-08-01T09:57:29;28.40;93.90
8633;DHT22;4354;49.832;10.746;2022-08-01T09:59:58;28.20;94.50
8633;DHT22;4354;49.832;10.746;2022-08-01T10:07:57;27.50;95.40
8633;DHT22;4354;49.832;10.746;2022-08-01T10:10:24;27.40;95.30
8633;DHT22;4354;49.832;10.746;2022-08-01T10:12:58;27.20;94.70
8633;DHT22;4354;49.832;10.746;2022-08-01T10:15:26;26.60;95.00
8633;DHT22;4354;49.832;10.746;2022-08-01T10:18:05;26.20;95.60
8633;DHT22;4354;49.832;10.746;2022-08-01T10:20:46;25.90;95.90
8633;DHT22;4354;49.832;10.746;2022-08-01T10:23:14;25.60;96.40
8633;DHT22;4354;49.832;10.746;2022-08-01T10:25:43;25.80;97.90
8633;DHT22;4354;49.832;10.746;2022-08-01T10:28:17;26.10;97.90
8633;DHT22;4354;49.832;10.746;2022-08-01T10:30:49;26.20;98.10
8633;DHT22;4354;49.832;10.746;2022-08-01T10:33:22;26.20;97.20
8633;DHT22;4354;49.832;10.746;2022-08-01T10:36:09;26.20;97.30
8633;DHT22;4354;49.832;10.746;2022-08-01T10:38:37;26.10;97.40
8633;DHT22;4354;49.832;10.746;2022-08-01T10:41:05;26.10;97.30
8633;DHT22;4354;49.832;10.746;2022-08-01T10:43:35;26.00;97.70
8633;DHT22;4354;49.832;10.746;2022-08-01T10:46:03;25.80;97.60
8633;DHT22;4354;49.832;10.746;2022-08-01T10:48:54;25.60;98.20
8633;DHT22;4354;49.832;10.746;2022-08-01T10:51:24;25.50;98.80
8633;DHT22;4354;49.832;10.746;2022-08-01T10:54:12;25.60;98.50
8633;DHT22;4354;49.832;10.746;2022-08-01T10:56:44;25.40;99.20
8633;DHT22;4354;49.832;10.746;2022-08-01T10:59:20;25.50;99.90
8633;DHT22;4354;49.832;10.746;2022-08-01T11:02:07;25.80;99.90
8633;DHT22;4354;49.832;10.746;2022-08-01T11:04:41;26.30;99.90
8633;DHT22;4354;49.832;10.746;2022-08-01T11:07:18;26.80;99.40
8633;DHT22;4354;49.832;10.746;2022-08-01T11:10:10;27.60;98.60
8633;DHT22;4354;49.832;10.746;2022-08-01T11:12:43;29.80;96.20
8633;DHT22;4354;49.832;10.746;2022-08-01T11:17:42;29.30;94.20
8633;DHT22;4354;49.832;10.746;2022-08-01T11:20:26;28.80;93.90
8633;DHT22;4354;49.832;10.746;2022-08-01T11:28:27;28.00;95.60
8633;DHT22;4354;49.832;10.746;2022-08-01T11:41:28;33.50;80.60
8633;DHT22;4354;49.832;10.746;2022-08-01T11:44:08;32.60;80.50
8633;DHT22;4354;49.832;10.746;2022-08-01T11:57:23;30.10;83.00
8633;DHT22;4354;49.832;10.746;2022-08-01T12:00:04;29.70;84.50
8633;DHT22;4354;49.832;10.746;2022-08-01T12:02:41;29.80;84.80
8633;DHT22;4354;49.832;10.746;2022-08-01T12:05:12;29.50;84.50
8633;DHT22;4354;49.832;10.746;2022-08-01T12:07:42;30.20;85.50
8633;DHT22;4354;49.832;10.746;2022-08-01T12:10:12;30.90;82.50
8633;DHT22;4354;49.832;10.746;2022-08-01T12:12:46;31.30;81.70
8633;DHT22;4354;49.832;10.746;2022-08-01T12:15:13;31.90;78.70
8633;DHT22;4354;49.832;10.746;2022-08-01T12:17:46;32.00;78.10
8633;DHT22;4354;49.832;10.746;2022-08-01T12:23:04;32.20;76.60
8633;DHT22;4354;49.832;10.746;2022-08-01T12:25:35;32.40;76.90
8633;DHT22;4354;49.832;10.746;2022-08-01T12:28:04;32.00;74.50
8633;DHT22;4354;49.832;10.746;2022-08-01T12:30:33;32.10;75.10
8633;DHT22;4354;49.832;10.746;2022-08-01T12:33:08;32.20;76.10
8633;DHT22;4354;49.832;10.746;2022-08-01T12:35:36;32.20;74.60
8633;DHT22;4354;49.832;10.746;2022-08-01T12:38:06;31.70;74.70
8633;DHT22;4354;49.832;10.746;2022-08-01T12:40:41;31.20;75.50
8633;DHT22;4354;49.832;10.746;2022-08-01T12:43:16;31.10;76.80
8633;DHT22;4354;49.832;10.746;2022-08-01T12:45:53;30.80;75.90
8633;DHT22;4354;49.832;10.746;2022-08-01T12:48:23;30.60;75.90
8633;DHT22;4354;49.832;10.746;2022-08-01T12:50:51;30.30;76.20
8633;DHT22;4354;49.832;10.746;2022-08-01T12:53:19;30.40;75.70
8633;DHT22;4354;49.832;10.746;2022-08-01T12:55:54;30.50;76.60
8633;DHT22;4354;49.832;10.746;2022-08-01T12:58:31;30.50;77.10
8633;DHT22;4354;49.832;10.746;2022-08-01T13:01:05;30.10;78.20
8633;DHT22;4354;49.832;10.746;2022-08-01T13:03:33;29.60;78.30
8633;DHT22;4354;49.832;10.746;2022-08-01T13:06:11;28.80;81.40
8633;DHT22;4354;49.832;10.746;2022-08-01T13:08:39;28.70;81.70
8633;DHT22;4354;49.832;10.746;2022-08-01T13:11:11;27.90;85.00
8633;DHT22;4354;49.832;10.746;2022-08-01T13:13:44;27.70;84.60
8633;DHT22;4354;49.832;10.746;2022-08-01T13:16:19;27.50;86.10
8633;DHT22;4354;49.832;10.746;2022-08-01T13:18:59;27.10;87.00
8633;DHT22;4354;49.832;10.746;2022-08-01T13:21:29;27.10;87.70
8633;DHT22;4354;49.832;10.746;2022-08-01T13:24:16;27.20;87.80
8633;DHT22;4354;49.832;10.746;2022-08-01T13:26:50;27.10;88.80
8633;DHT22;4354;49.832;10.746;2022-08-01T13:29:20;27.10;89.40
8633;DHT22;4354;49.832;10.746;2022-08-01T13:31:47;26.90;90.70
8633;DHT22;4354;49.832;10.746;2022-08-01T13:34:15;26.90;90.30
8633;DHT22;4354;49.832;10.746;2022-08-01T13:36:42;26.90;90.90
8633;DHT22;4354;49.832;10.746;2022-08-01T13:39:15;27.00;91.10
8633;DHT22;4354;49.832;10.746;2022-08-01T13:42:00;27.00;91.10
8633;DHT22;4354;49.832;10.746;2022-08-01T13:44:27;27.20;90.90
8633;DHT22;4354;49.832;10.746;2022-08-01T13:46:54;27.40;90.50
8633;DHT22;4354;49.832;10.746;2022-08-01T13:49:22;27.50;91.00
8633;DHT22;4354;49.832;10.746;2022-08-01T13:51:49;27.50;91.40
8633;DHT22;4354;49.832;10.746;2022-08-01T13:54:17;27.50;91.00
8633;DHT22;4354;49.832;10.746;2022-08-01T13:56:44;27.50;91.00
8633;DHT22;4354;49.832;10.746;2022-08-01T13:59:12;27.70;91.30
8633;DHT22;4354;49.832;10.746;2022-08-01T14:01:39;28.10;90.90
8633;DHT22;4354;49.832;10.746;2022-08-01T14:04:06;28.80;90.80
8633;DHT22;4354;49.832;10.746;2022-08-01T14:06:33;29.30;89.80
8633;DHT22;4354;49.832;10.746;2022-08-01T14:09:03;30.00;88.30
8633;DHT22;4354;49.832;10.746;2022-08-01T14:11:43;30.50;86.00
8633;DHT22;4354;49.832;10.746;2022-08-01T14:14:12;30.70;85.30
8633;DHT22;4354;49.832;10.746;2022-08-01T14:16:42;30.60;84.80
8633;DHT22;4354;49.832;10.746;2022-08-01T14:19:11;30.00;85.00
8633;DHT22;4354;49.832;10.746;2022-08-01T14:21:38;29.60;85.10
8633;DHT22;4354;49.832;10.746;2022-08-01T14:24:05;29.20;85.20
8633;DHT22;4354;49.832;10.746;2022-08-01T14:26:33;29.00;85.10
8633;DHT22;4354;49.832;10.746;2022-08-01T14:29:01;28.90;85.50
8633;DHT22;4354;49.832;10.746;2022-08-01T14:31:28;28.80;86.00
8633;DHT22;4354;49.832;10.746;2022-08-01T14:33:59;28.70;86.30
8633;DHT22;4354;49.832;10.746;2022-08-01T14:36:26;29.00;85.90
8633;DHT22;4354;49.832;10.746;2022-08-01T14:38:57;29.10;86.30
8633;DHT22;4354;49.832;10.746;2022-08-01T14:41:26;29.20;86.30
8633;DHT22;4354;49.832;10.746;2022-08-01T14:43:53;29.10;83.40
8633;DHT22;4354;49.832;10.746;2022-08-01T14:46:20;28.90;84.50
8633;DHT22;4354;49.832;10.746;2022-08-01T14:48:47;28.70;85.10
8633;DHT22;4354;49.832;10.746;2022-08-01T14:51:14;28.50;85.10
8633;DHT22;4354;49.832;10.746;2022-08-01T14:53:40;28.40;85.10
8633;DHT22;4354;49.832;10.746;2022-08-01T14:56:16;28.30;85.80
8633;DHT22;4354;49.832;10.746;2022-08-01T14:58:43;28.30;87.00
8633;DHT22;4354;49.832;10.746;2022-08-01T15:01:10;28.40;87.20
8633;DHT22;4354;49.832;10.746;2022-08-01T15:03:37;28.50;86.20
8633;DHT22;4354;49.832;10.746;2022-08-01T15:06:04;28.40;87.00
8633;DHT22;4354;49.832;10.746;2022-08-01T15:08:32;28.60;87.10
8633;DHT22;4354;49.832;10.746;2022-08-01T15:10:59;28.60;87.60
8633;DHT22;4354;49.832;10.746;2022-08-01T15:13:27;28.70;87.30
8633;DHT22;4354;49.832;10.746;2022-08-01T15:15:54;28.50;87.80
8633;DHT22;4354;49.832;10.746;2022-08-01T15:18:26;28.40;87.00
8633;DHT22;4354;49.832;10.746;2022-08-01T15:20:54;28.30;87.40
8633;DHT22;4354;49.832;10.746;2022-08-01T15:23:21;28.10;87.70
8633;DHT22;4354;49.832;10.746;2022-08-01T15:25:48;28.10;87.50
8633;DHT22;4354;49.832;10.746;2022-08-01T15:28:15;28.00;89.70
8633;DHT22;4354;49.832;10.746;2022-08-01T15:30:42;28.00;89.10
8633;DHT22;4354;49.832;10.746;2022-08-01T15:33:08;27.90;89.50
8633;DHT22;4354;49.832;10.746;2022-08-01T15:35:35;27.90;90.00
8633;DHT22;4354;49.832;10.746;2022-08-01T15:38:02;27.90;88.80
8633;DHT22;4354;49.832;10.746;2022-08-01T15:40:29;27.90;89.20
8633;DHT22;4354;49.832;10.746;2022-08-01T15:42:59;27.80;89.30
8633;DHT22;4354;49.832;10.746;2022-08-01T15:45:26;27.80;88.80
8633;DHT22;4354;49.832;10.746;2022-08-01T15:48:13;27.80;89.70
8633;DHT22;4354;49.832;10.746;2022-08-01T15:50:40;27.70;89.90
8633;DHT22;4354;49.832;10.746;2022-08-01T15:53:06;27.60;88.70
8633;DHT22;4354;49.832;10.746;2022-08-01T15:55:39;27.50;89.00
8633;DHT22;4354;49.832;10.746;2022-08-01T15:58:07;27.30;89.90
8633;DHT22;4354;49.832;10.746;2022-08-01T16:00:38;27.10;89.80
8633;DHT22;4354;49.832;10.746;2022-08-01T16:03:07;26.80;90.00
8633;DHT22;4354;49.832;10.746;2022-08-01T16:05:35;26.60;89.80
8633;DHT22;4354;49.832;10.746;2022-08-01T16:08:10;26.50;90.70
8633;DHT22;4354;49.832;10.746;2022-08-01T16:10:37;26.50;90.60
8633;DHT22;4354;49.832;10.746;2022-08-01T16:13:04;26.50;91.00
8633;DHT22;4354;49.832;10.746;2022-08-01T16:15:33;26.50;90.80
8633;DHT22;4354;49.832;10.746;2022-08-01T16:18:05;26.60;90.70
8633;DHT22;4354;49.832;10.746;2022-08-01T16:20:32;26.50;90.40
8633;DHT22;4354;49.832;10.746;2022-08-01T16:22:59;26.50;90.70
8633;DHT22;4354;49.832;10.746;2022-08-01T16:25:27;26.40;90.70
8633;DHT22;4354;49.832;10.746;2022-08-01T16:27:54;26.30;90.70
8633;DHT22;4354;49.832;10.746;2022-08-01T16:30:21;26.20;90.60
8633;DHT22;4354;49.832;10.746;2022-08-01T16:32:48;26.10;91.10
8633;DHT22;4354;49.832;10.746;2022-08-01T16:35:22;26.10;91.30
8633;DHT22;4354;49.832;10.746;2022-08-01T16:37:58;26.10;91.30
8633;DHT22;4354;49.832;10.746;2022-08-01T16:40:24;26.10;91.60
8633;DHT22;4354;49.832;10.746;2022-08-01T16:42:51;26.10;91.20
8633;DHT22;4354;49.832;10.746;2022-08-01T16:45:24;26.30;91.30